createdAt,value
2022-09-21T00:01:24.298Z,6.78
2022-09-21T00:03:56.698Z,6.88
2022-09-21T00:06:26.048Z,6.78
2022-09-21T00:08:53.891Z,6.45
2022-09-21T00:11:25.023Z,6.22
2022-09-21T00:13:55.289Z,6.80
2022-09-21T00:16:22.991Z,6.75
2022-09-21T00:18:50.246Z,5.63
2022-09-21T00:21:18.303Z,5.85
2022-09-21T00:23:45.808Z,5.43
2022-09-21T00:26:15.999Z,6.30
2022-09-21T00:28:44.724Z,6.15
2022-09-21T00:31:14.415Z,5.93
2022-09-21T00:33:42.122Z,6.38
2022-09-21T00:36:13.213Z,5.78
2022-09-21T00:38:40.745Z,6.45
2022-09-21T00:41:09.489Z,6.18
2022-09-21T00:43:40.109Z,6.10
2022-09-21T00:46:27.158Z,6.43
2022-09-21T00:48:54.553Z,5.68
2022-09-21T00:51:21.854Z,6.82
2022-09-21T00:53:54.285Z,6.03
2022-09-21T00:56:21.834Z,6.97
2022-09-21T00:58:52.094Z,6.80
2022-09-21T01:01:19.979Z,7.15
2022-09-21T01:03:49.278Z,7.18
2022-09-21T01:06:19.430Z,7.07
2022-09-21T01:08:52.868Z,7.30
2022-09-21T01:11:54.554Z,7.85
2022-09-21T01:14:37.000Z,8.35
2022-09-21T01:17:11.195Z,9.10
2022-09-21T01:19:47.577Z,8.27
2022-09-21T01:25:18.922Z,8.02
2022-09-21T01:28:17.233Z,7.43
2022-09-21T01:30:48.926Z,7.78
2022-09-21T01:33:26.467Z,8.55
2022-09-21T01:35:58.298Z,7.55
2022-09-21T01:38:38.905Z,7.53
2022-09-21T01:41:08.494Z,7.65
2022-09-21T01:43:40.503Z,7.90
2022-09-21T01:46:14.012Z,7.75
2022-09-21T01:48:46.664Z,7.65
2022-09-21T01:51:17.172Z,8.02
2022-09-21T01:53:59.263Z,7.57
2022-09-21T01:56:33.390Z,7.10
2022-09-21T01:59:30.448Z,9.00
2022-09-21T02:02:06.391Z,7.93
2022-09-21T02:04:35.293Z,7.57
2022-09-21T02:07:02.555Z,7.70
2022-09-21T02:09:30.074Z,8.52
2022-09-21T02:11:58.383Z,6.95
2022-09-21T02:14:26.113Z,6.90
2022-09-21T02:17:26.477Z,6.47
2022-09-21T02:20:03.138Z,7.03
2022-09-21T02:22:45.189Z,7.65
2022-09-21T02:25:37.965Z,7.90
2022-09-21T02:28:31.346Z,8.40
2022-09-21T02:31:13.992Z,9.25
2022-09-21T02:34:36.650Z,8.07
2022-09-21T02:37:32.728Z,7.80
2022-09-21T02:40:24.175Z,8.30
2022-09-21T02:42:56.628Z,8.52
2022-09-21T02:45:28.969Z,7.45
2022-09-21T02:48:00.479Z,8.50
2022-09-21T02:50:34.157Z,6.90
2022-09-21T02:53:03.950Z,8.30
2022-09-21T02:55:32.730Z,7.43
2022-09-21T02:58:03.349Z,7.90
2022-09-21T03:00:30.485Z,8.35
2022-09-21T03:02:57.298Z,7.68
2022-09-21T03:05:24.230Z,7.82
2022-09-21T03:07:51.258Z,7.07
2022-09-21T03:10:19.157Z,7.85
2022-09-21T03:12:46.961Z,8.25
2022-09-21T03:15:16.619Z,8.10
2022-09-21T03:17:43.547Z,8.30
2022-09-21T03:20:10.528Z,8.07
2022-09-21T03:22:37.457Z,8.60
2022-09-21T03:25:05.137Z,8.70
2022-09-21T03:27:32.489Z,7.30
2022-09-21T03:30:02.179Z,8.45
2022-09-21T03:32:29.604Z,5.85
2022-09-21T03:34:56.510Z,7.38
2022-09-21T03:37:23.280Z,8.70
2022-09-21T03:39:50.082Z,7.38
2022-09-21T03:42:16.989Z,8.88
2022-09-21T03:44:43.950Z,7.22
2022-09-21T03:47:10.852Z,7.13
2022-09-21T03:49:38.863Z,7.55
2022-09-21T03:52:05.748Z,7.05
2022-09-21T03:54:32.684Z,8.50
2022-09-21T03:56:59.620Z,7.28
2022-09-21T03:59:26.524Z,7.82
2022-09-21T04:01:53.550Z,8.48
2022-09-21T04:04:20.819Z,7.72
2022-09-21T04:06:47.734Z,7.80
2022-09-21T04:09:14.582Z,7.65
2022-09-21T04:11:41.971Z,7.65
2022-09-21T04:14:08.925Z,7.70
2022-09-21T04:16:36.093Z,6.68
2022-09-21T04:19:02.972Z,7.03
2022-09-21T04:21:30.140Z,6.88
2022-09-21T04:23:59.565Z,5.72
2022-09-21T04:26:32.444Z,5.53
2022-09-21T04:29:00.278Z,5.10
2022-09-21T04:31:28.610Z,4.35
2022-09-21T04:33:57.228Z,5.55
2022-09-21T04:36:26.377Z,5.28
2022-09-21T04:38:53.354Z,5.68
2022-09-21T04:41:20.475Z,5.30
2022-09-21T04:43:48.631Z,5.03
2022-09-21T04:46:18.881Z,5.05
2022-09-21T04:48:46.606Z,5.38
2022-09-21T04:51:15.159Z,5.13
2022-09-21T04:53:43.104Z,5.45
2022-09-21T04:56:12.955Z,6.00
2022-09-21T04:58:40.049Z,5.53
2022-09-21T05:01:07.756Z,4.47
2022-09-21T05:03:34.917Z,4.65
2022-09-21T05:06:02.690Z,2.70
2022-09-21T05:08:48.223Z,3.10
2022-09-21T05:11:19.122Z,3.42
2022-09-21T05:13:48.011Z,4.75
2022-09-21T05:16:16.116Z,4.90
2022-09-21T05:18:43.301Z,4.97
2022-09-21T05:21:12.257Z,5.22
2022-09-21T05:23:39.170Z,5.38
2022-09-21T05:26:06.516Z,5.25
2022-09-21T05:28:39.095Z,5.18
2022-09-21T05:31:31.353Z,6.57
2022-09-21T05:34:07.659Z,6.93
2022-09-21T05:39:04.945Z,5.72
2022-09-21T05:41:32.080Z,6.38
2022-09-21T05:43:59.218Z,5.60
2022-09-21T05:46:31.873Z,5.80
2022-09-21T05:49:17.400Z,6.50
2022-09-21T05:51:56.994Z,5.63
2022-09-21T05:54:43.485Z,4.72
2022-09-21T05:57:34.723Z,4.80
2022-09-21T06:00:10.833Z,4.22
2022-09-21T06:03:00.043Z,5.20
2022-09-21T06:05:27.078Z,5.20
2022-09-21T06:07:53.857Z,4.05
2022-09-21T06:10:20.783Z,4.00
2022-09-21T06:12:47.577Z,3.90
2022-09-21T06:15:15.388Z,4.00
2022-09-21T06:17:42.683Z,4.30
2022-09-21T06:20:09.901Z,4.15
2022-09-21T06:22:36.678Z,4.15
2022-09-21T06:25:04.171Z,4.30
2022-09-21T06:27:31.126Z,4.20
2022-09-21T06:29:57.958Z,3.75
2022-09-21T06:32:24.948Z,4.20
2022-09-21T06:34:51.905Z,4.43
2022-09-21T06:37:19.019Z,4.15
2022-09-21T06:39:45.841Z,4.78
2022-09-21T06:42:12.651Z,4.50
2022-09-21T06:44:41.774Z,4.10
2022-09-21T06:47:08.748Z,4.20
2022-09-21T06:49:39.190Z,3.80
2022-09-21T06:52:08.733Z,5.68
2022-09-21T06:54:36.822Z,4.90
2022-09-21T06:57:03.948Z,3.78
2022-09-21T06:59:31.104Z,4.90
2022-09-21T07:01:58.582Z,4.28
2022-09-21T07:04:25.886Z,3.40
2022-09-21T07:06:52.710Z,4.18
2022-09-21T07:12:08.003Z,3.70
2022-09-21T07:14:34.944Z,3.92
2022-09-21T07:17:02.332Z,4.05
2022-09-21T07:19:29.141Z,3.30
2022-09-21T07:21:56.113Z,3.20
2022-09-21T07:24:22.993Z,3.15
2022-09-21T07:26:49.814Z,3.40
2022-09-21T07:29:16.730Z,3.38
2022-09-21T07:31:45.106Z,3.05
2022-09-21T07:34:12.208Z,2.53
2022-09-21T07:36:39.076Z,2.50
2022-09-21T07:39:06.438Z,2.83
2022-09-21T07:41:33.351Z,2.75
2022-09-21T07:44:00.234Z,2.78
2022-09-21T07:46:27.110Z,2.58
2022-09-21T07:48:55.110Z,2.90
2022-09-21T07:51:22.714Z,2.42
2022-09-21T07:53:56.796Z,2.47
2022-09-21T07:56:24.427Z,2.20
2022-09-21T07:59:06.336Z,2.17
2022-09-21T08:01:38.854Z,2.45
2022-09-21T08:04:10.617Z,3.03
2022-09-21T08:06:40.495Z,2.53
2022-09-21T08:09:08.470Z,2.83
2022-09-21T08:11:37.369Z,2.00
2022-09-21T08:14:04.829Z,2.10
2022-09-21T08:16:32.272Z,2.70
2022-09-21T08:18:59.853Z,2.13
2022-09-21T08:21:26.983Z,2.55
2022-09-21T08:23:54.145Z,2.15
2022-09-21T08:26:21.526Z,2.75
2022-09-21T08:28:51.661Z,2.28
2022-09-21T08:31:21.564Z,2.40
2022-09-21T08:33:50.132Z,2.33
2022-09-21T08:36:18.501Z,2.45
2022-09-21T08:38:45.923Z,2.00
2022-09-21T08:41:25.922Z,2.60
2022-09-21T08:44:14.097Z,2.90
2022-09-21T08:46:42.692Z,1.92
2022-09-21T08:49:19.641Z,1.95
2022-09-21T08:52:16.729Z,2.67
2022-09-21T08:54:56.407Z,2.50
2022-09-21T08:57:29.705Z,2.50
2022-09-21T08:59:57.420Z,2.13
2022-09-21T09:02:45.632Z,2.30
2022-09-21T09:05:30.464Z,2.53
2022-09-21T09:08:21.295Z,2.20
2022-09-21T09:11:13.013Z,2.10
2022-09-21T09:14:01.676Z,2.30
2022-09-21T09:16:46.534Z,2.60
2022-09-21T09:19:38.406Z,1.80
2022-09-21T09:22:11.737Z,2.33
2022-09-21T09:24:43.675Z,2.13
2022-09-21T09:27:22.783Z,2.30
2022-09-21T09:30:06.054Z,3.13
2022-09-21T09:33:02.343Z,2.05
2022-09-21T09:35:52.224Z,2.00
2022-09-21T09:38:38.527Z,1.80
2022-09-21T09:41:23.124Z,1.80
2022-09-21T09:44:19.486Z,1.80
2022-09-21T09:47:16.602Z,1.80
2022-09-21T09:50:08.522Z,1.90
2022-09-21T09:52:35.600Z,1.98
2022-09-21T09:55:39.042Z,1.65
2022-09-21T09:58:16.119Z,1.50
2022-09-21T10:00:43.090Z,1.52
2022-09-21T10:03:19.422Z,1.20
2022-09-21T10:05:47.148Z,1.67
2022-09-21T10:08:39.286Z,1.45
2022-09-21T10:11:06.413Z,1.75
2022-09-21T10:13:42.023Z,2.00
2022-09-21T10:16:17.856Z,1.92
2022-09-21T10:18:49.536Z,1.88
2022-09-21T10:21:18.376Z,1.95
2022-09-21T10:26:34.737Z,1.65
2022-09-21T10:29:25.439Z,1.08
2022-09-21T10:32:00.722Z,1.70
2022-09-21T10:34:35.306Z,1.83
2022-09-21T10:37:23.249Z,1.80
2022-09-21T10:39:50.333Z,1.80
2022-09-21T10:42:19.209Z,1.85
2022-09-21T10:44:50.057Z,1.75
2022-09-21T10:47:30.665Z,2.13
2022-09-21T10:50:00.347Z,1.67
2022-09-21T10:52:44.050Z,1.90
2022-09-21T10:55:21.826Z,1.60
2022-09-21T10:57:51.058Z,1.60
2022-09-21T11:00:35.822Z,1.25
2022-09-21T11:03:26.815Z,1.60
2022-09-21T11:05:54.338Z,1.90
2022-09-21T11:08:34.295Z,1.52
2022-09-21T11:11:27.898Z,1.50
2022-09-21T11:14:04.840Z,1.75
2022-09-21T11:16:40.357Z,1.73
2022-09-21T11:19:35.312Z,1.25
2022-09-21T11:22:18.903Z,1.50
2022-09-21T11:25:04.378Z,1.38
2022-09-21T11:27:36.372Z,1.65
2022-09-21T11:30:09.642Z,1.10
2022-09-21T11:32:41.800Z,1.30
2022-09-21T11:35:20.765Z,1.00
2022-09-21T11:38:04.341Z,1.38
2022-09-21T11:40:54.426Z,1.48
2022-09-21T11:43:53.104Z,1.10
2022-09-21T11:46:50.923Z,1.02
2022-09-21T11:49:43.089Z,1.50
2022-09-21T11:52:35.292Z,0.93
2022-09-21T11:55:24.745Z,1.15
2022-09-21T11:57:55.203Z,1.40
2022-09-21T12:00:25.179Z,1.35
2022-09-21T12:03:07.416Z,1.05
2022-09-21T12:05:59.331Z,0.93
2022-09-21T12:09:03.252Z,0.63
2022-09-21T12:12:03.150Z,1.10
2022-09-21T12:17:40.986Z,0.95
2022-09-21T12:20:25.874Z,1.10
2022-09-21T12:23:00.764Z,1.08
2022-09-21T12:25:40.865Z,1.33
2022-09-21T12:28:45.014Z,1.30
2022-09-21T12:31:51.438Z,1.20
2022-09-21T12:34:23.276Z,1.15
2022-09-21T12:37:19.006Z,0.90
2022-09-21T12:40:19.379Z,1.38
2022-09-21T12:43:10.569Z,1.25
2022-09-21T12:45:48.027Z,1.17
2022-09-21T12:48:24.685Z,1.20
2022-09-21T12:51:16.395Z,0.98
2022-09-21T12:53:50.797Z,1.17
2022-09-21T12:56:44.357Z,1.27
2022-09-21T12:59:19.872Z,1.20
2022-09-21T13:01:57.174Z,1.40
2022-09-21T13:04:44.596Z,1.50
2022-09-21T13:07:46.758Z,1.30
2022-09-21T13:10:54.871Z,1.23
2022-09-21T13:13:56.099Z,1.40
2022-09-21T13:16:32.831Z,1.40
2022-09-21T13:19:06.885Z,1.38
2022-09-21T13:21:33.933Z,1.30
2022-09-21T13:24:06.135Z,1.20
2022-09-21T13:26:43.040Z,1.50
2022-09-21T13:29:19.357Z,1.20
2022-09-21T13:32:12.294Z,1.50
2022-09-21T13:34:42.836Z,1.35
2022-09-21T13:37:15.911Z,1.30
2022-09-21T13:39:57.796Z,1.20
2022-09-21T13:42:30.782Z,1.52
2022-09-21T13:44:59.511Z,1.23
2022-09-21T13:47:33.214Z,1.30
2022-09-21T13:50:10.547Z,1.70
2022-09-21T13:52:44.094Z,1.17
2022-09-21T13:55:38.712Z,1.42
2022-09-21T13:58:23.733Z,1.30
2022-09-21T14:01:35.384Z,1.42
2022-09-21T14:04:06.496Z,1.10
2022-09-21T14:06:44.061Z,1.10
2022-09-21T14:09:41.611Z,1.27
2022-09-21T14:12:19.224Z,0.98
2022-09-21T14:15:12.797Z,1.20
2022-09-21T14:17:40.828Z,1.40
2022-09-21T14:20:30.768Z,1.13
2022-09-21T14:23:22.468Z,1.25
2022-09-21T14:25:56.643Z,1.40
2022-09-21T14:28:53.354Z,1.30
2022-09-21T14:31:29.364Z,0.90
2022-09-21T14:33:59.897Z,1.48
2022-09-21T14:36:41.431Z,1.30
2022-09-21T14:39:19.328Z,1.08
2022-09-21T14:41:49.647Z,1.50
2022-09-21T14:44:28.208Z,1.35
2022-09-21T14:47:11.315Z,1.13
2022-09-21T14:49:51.382Z,1.33
2022-09-21T14:52:38.165Z,1.20
2022-09-21T14:55:21.730Z,1.38
2022-09-21T14:58:03.692Z,0.80
2022-09-21T15:01:20.425Z,1.27
2022-09-21T15:04:19.022Z,1.30
2022-09-21T15:07:35.710Z,0.95
2022-09-21T15:10:45.536Z,1.10
2022-09-21T15:14:06.182Z,1.52
2022-09-21T15:16:44.333Z,1.63
2022-09-21T15:19:27.181Z,1.13
2022-09-21T15:22:15.603Z,1.73
2022-09-21T15:27:23.810Z,1.00
2022-09-21T15:29:56.963Z,1.40
2022-09-21T15:32:42.920Z,1.35
2022-09-21T15:35:22.095Z,1.13
2022-09-21T15:37:51.355Z,1.33
2022-09-21T15:40:33.983Z,1.20
2022-09-21T15:43:19.702Z,1.30
2022-09-21T15:46:05.186Z,1.30
2022-09-21T15:48:41.184Z,1.35
2022-09-21T15:51:27.112Z,1.40
2022-09-21T15:54:14.057Z,1.20
2022-09-21T15:56:44.423Z,1.20
2022-09-21T15:59:18.215Z,1.10
2022-09-21T16:01:49.391Z,1.40
2022-09-21T16:04:24.925Z,1.60
2022-09-21T16:07:06.905Z,1.52
2022-09-21T16:12:32.633Z,1.10
2022-09-21T16:15:08.903Z,1.17
2022-09-21T16:17:38.011Z,1.38
2022-09-21T16:23:16.760Z,1.25
2022-09-21T16:26:02.150Z,1.30
2022-09-21T16:28:36.405Z,1.50
2022-09-21T16:38:25.767Z,1.33
2022-09-21T16:43:44.171Z,1.38
2022-09-21T16:46:11.852Z,1.25
2022-09-21T16:48:40.198Z,2.58
2022-09-21T16:51:14.043Z,1.20
2022-09-21T16:53:41.397Z,1.05
2022-09-21T16:56:16.122Z,1.83
2022-09-21T16:58:44.274Z,1.65
2022-09-21T17:01:18.200Z,1.02
2022-09-21T17:03:47.346Z,1.13
2022-09-21T17:06:19.372Z,1.48
2022-09-21T17:08:48.404Z,1.30
2022-09-21T17:11:20.393Z,1.48
2022-09-21T17:13:48.536Z,1.20
2022-09-21T17:16:18.303Z,1.10
2022-09-21T17:18:46.276Z,1.33
2022-09-21T17:21:13.965Z,1.20
2022-09-21T17:23:42.462Z,1.50
2022-09-21T17:26:19.457Z,1.42
2022-09-21T17:28:46.725Z,1.30
2022-09-21T17:31:17.538Z,1.42
2022-09-21T17:33:46.164Z,1.50
2022-09-21T17:36:19.559Z,1.20
2022-09-21T17:38:46.581Z,1.40
2022-09-21T17:41:42.513Z,1.90
2022-09-21T17:44:29.762Z,1.67
2022-09-21T17:47:22.140Z,1.33
2022-09-21T17:49:53.484Z,1.55
2022-09-21T17:52:43.429Z,1.45
2022-09-21T17:55:12.918Z,2.10
2022-09-21T17:57:46.281Z,2.17
2022-09-21T18:00:50.576Z,1.98
2022-09-21T18:03:26.104Z,2.45
2022-09-21T18:06:12.848Z,2.15
2022-09-21T18:08:42.759Z,1.88
2022-09-21T18:11:41.946Z,2.70
2022-09-21T18:14:29.271Z,2.95
2022-09-21T18:17:33.078Z,3.83
2022-09-21T18:20:10.396Z,5.05
2022-09-21T18:22:59.644Z,4.88
2022-09-21T18:25:31.290Z,4.40
2022-09-21T18:28:00.463Z,3.42
2022-09-21T18:30:27.913Z,3.35
2022-09-21T18:33:16.911Z,3.33
2022-09-21T18:35:50.113Z,3.08
2022-09-21T18:38:43.479Z,3.88
2022-09-21T18:41:34.086Z,3.40
2022-09-21T18:44:14.447Z,3.40
2022-09-21T18:46:59.454Z,3.80
2022-09-21T18:49:47.862Z,2.65
2022-09-21T18:52:30.583Z,3.13
2022-09-21T18:57:25.397Z,3.17
2022-09-21T18:59:52.651Z,2.72
2022-09-21T19:02:22.927Z,2.83
2022-09-21T19:04:50.624Z,3.35
2022-09-21T19:07:51.896Z,3.08
2022-09-21T19:10:30.823Z,2.70
2022-09-21T19:13:19.590Z,2.38
2022-09-21T19:16:01.499Z,3.05
2022-09-21T19:18:52.789Z,3.25
2022-09-21T19:21:27.385Z,2.67
2022-09-21T19:24:15.037Z,2.60
2022-09-21T19:26:47.879Z,3.03
2022-09-21T19:29:31.004Z,3.90
2022-09-21T19:32:16.457Z,3.97
2022-09-21T19:34:44.467Z,3.83
2022-09-21T19:37:11.711Z,3.85
2022-09-21T19:39:39.295Z,3.38
2022-09-21T19:42:29.894Z,3.65
2022-09-21T19:48:48.014Z,4.03
2022-09-21T19:54:21.110Z,3.70
2022-09-21T19:57:12.256Z,3.45
2022-09-21T19:59:45.112Z,3.30
2022-09-21T20:02:18.584Z,3.45
2022-09-21T20:04:50.601Z,3.92
2022-09-21T20:07:52.103Z,4.10
2022-09-21T20:10:34.479Z,3.70
2022-09-21T20:13:01.567Z,4.13
2022-09-21T20:15:37.752Z,3.65
2022-09-21T20:18:24.235Z,3.90
2022-09-21T20:20:54.778Z,4.20
2022-09-21T20:23:21.872Z,3.90
2022-09-21T20:25:51.332Z,4.25
2022-09-21T20:28:18.490Z,3.97
2022-09-21T20:30:48.368Z,4.95
2022-09-21T20:33:22.525Z,4.40
2022-09-21T20:35:53.089Z,4.50
2022-09-21T20:38:20.005Z,5.13
2022-09-21T20:40:47.326Z,4.90
2022-09-21T20:43:14.336Z,5.05
2022-09-21T20:45:47.878Z,5.57
2022-09-21T20:48:15.822Z,4.38
2022-09-21T20:50:46.084Z,5.30
2022-09-21T20:53:14.161Z,5.72
2022-09-21T20:55:43.204Z,6.35
2022-09-21T20:58:18.536Z,6.63
2022-09-21T21:00:46.255Z,5.30
2022-09-21T21:03:13.629Z,5.43
2022-09-21T21:05:40.996Z,4.43
2022-09-21T21:08:09.089Z,5.65
2022-09-21T21:10:37.187Z,4.75
2022-09-21T21:13:05.412Z,4.57
2022-09-21T21:15:35.953Z,5.00
2022-09-21T21:18:02.876Z,5.00
2022-09-21T21:20:31.767Z,5.75
2022-09-21T21:22:59.138Z,5.82
2022-09-21T21:25:26.157Z,4.90
2022-09-21T21:27:57.399Z,5.88
2022-09-21T21:30:25.340Z,5.03
2022-09-21T21:32:53.280Z,5.22
2022-09-21T21:35:20.397Z,6.32
2022-09-21T21:37:47.638Z,5.25
2022-09-21T21:40:15.174Z,4.80
2022-09-21T21:42:45.235Z,4.88
2022-09-21T21:45:12.241Z,5.80
2022-09-21T21:47:40.599Z,5.60
2022-09-21T21:50:09.830Z,5.50
2022-09-21T21:52:37.401Z,5.50
2022-09-21T21:55:06.326Z,5.70
2022-09-21T21:57:33.400Z,5.25
2022-09-21T22:06:06.780Z,5.95
2022-09-21T22:08:35.413Z,5.50
2022-09-21T22:11:02.917Z,5.88
2022-09-21T22:13:34.890Z,5.90
2022-09-21T22:16:07.707Z,5.28
2022-09-21T22:18:38.554Z,6.10
2022-09-21T22:21:08.986Z,6.25
2022-09-21T22:23:36.517Z,5.78
2022-09-21T22:26:05.309Z,5.63
2022-09-21T22:28:33.285Z,5.93
2022-09-21T22:31:01.915Z,5.50
2022-09-21T22:36:27.297Z,5.38
2022-09-21T22:38:55.363Z,5.70
2022-09-21T22:41:29.910Z,5.60
2022-09-21T22:44:02.127Z,6.15
2022-09-21T22:48:57.287Z,5.57
2022-09-21T22:51:24.316Z,6.25
2022-09-21T22:53:51.583Z,6.43
2022-09-21T22:56:26.773Z,5.68
2022-09-21T22:58:56.124Z,5.32
2022-09-21T23:04:18.699Z,5.45
2022-09-21T23:06:46.510Z,5.78
2022-09-21T23:09:16.877Z,5.90
2022-09-21T23:11:47.492Z,6.47
2022-09-21T23:14:16.796Z,6.18
2022-09-21T23:16:44.004Z,6.60
2022-09-21T23:19:15.810Z,6.28
2022-09-21T23:21:45.818Z,5.43
2022-09-21T23:24:13.473Z,6.47
2022-09-21T23:26:40.623Z,6.20
2022-09-21T23:29:12.626Z,6.30
2022-09-21T23:31:44.480Z,6.25
2022-09-21T23:34:15.214Z,5.82
2022-09-21T23:36:43.503Z,6.15
2022-09-21T23:39:12.711Z,6.47
2022-09-21T23:41:39.994Z,6.55
2022-09-21T23:44:07.510Z,6.15
2022-09-21T23:46:36.715Z,6.60
2022-09-21T23:49:04.493Z,6.68
2022-09-21T23:51:31.684Z,6.43
2022-09-21T23:53:59.522Z,6.22
2022-09-21T23:56:26.978Z,6.68
2022-09-21T23:58:53.928Z,6.97
